sensor_id;sensor_type;location;lat;lon;timestamp;P1;durP1;ratioP1;P2;durP2;ratioP2
20431;SDS011;10375;49.136;10.366;2022-12-07T00:03:48;13.77;;;11.03;;
20431;SDS011;10375;49.136;10.366;2022-12-07T00:06:17;15.40;;;11.07;;
20431;SDS011;10375;49.136;10.366;2022-12-07T00:08:45;14.30;;;10.53;;
20431;SDS011;10375;49.136;10.366;2022-12-07T00:11:13;17.73;;;11.10;;
20431;SDS011;10375;49.136;10.366;2022-12-07T00:13:45;13.90;;;10.53;;
20431;SDS011;10375;49.136;10.366;2022-12-07T00:16:15;12.33;;;10.23;;
20431;SDS011;10375;49.136;10.366;2022-12-07T00:18:44;16.33;;;10.83;;
20431;SDS011;10375;49.136;10.366;2022-12-07T00:21:12;13.87;;;10.37;;
20431;SDS011;10375;49.136;10.366;2022-12-07T00:23:42;15.90;;;10.90;;
20431;SDS011;10375;49.136;10.366;2022-12-07T00:26:14;16.43;;;10.20;;
20431;SDS011;10375;49.136;10.366;2022-12-07T00:28:47;16.47;;;10.77;;
20431;SDS011;10375;49.136;10.366;2022-12-07T00:31:19;14.80;;;10.70;;
20431;SDS011;10375;49.136;10.366;2022-12-07T00:33:49;11.87;;;9.97;;
20431;SDS011;10375;49.136;10.366;2022-12-07T00:36:20;12.30;;;10.00;;
20431;SDS011;10375;49.136;10.366;2022-12-07T00:38:52;13.37;;;10.70;;
20431;SDS011;10375;49.136;10.366;2022-12-07T00:41:22;15.17;;;10.97;;
20431;SDS011;10375;49.136;10.366;2022-12-07T00:43:50;14.10;;;10.40;;
20431;SDS011;10375;49.136;10.366;2022-12-07T00:46:18;19.03;;;11.00;;
20431;SDS011;10375;49.136;10.366;2022-12-07T00:48:46;12.50;;;10.23;;
20431;SDS011;10375;49.136;10.366;2022-12-07T00:51:15;15.70;;;11.50;;
20431;SDS011;10375;49.136;10.366;2022-12-07T00:53:43;15.67;;;11.23;;
20431;SDS011;10375;49.136;10.366;2022-12-07T00:56:11;14.30;;;10.87;;
20431;SDS011;10375;49.136;10.366;2022-12-07T00:58:40;15.20;;;11.10;;
20431;SDS011;10375;49.136;10.366;2022-12-07T01:01:07;14.07;;;11.13;;
20431;SDS011;10375;49.136;10.366;2022-12-07T01:03:36;19.20;;;12.47;;
20431;SDS011;10375;49.136;10.366;2022-12-07T01:06:04;17.23;;;12.50;;
20431;SDS011;10375;49.136;10.366;2022-12-07T01:08:31;15.43;;;11.63;;
20431;SDS011;10375;49.136;10.366;2022-12-07T01:13:30;15.83;;;11.90;;
20431;SDS011;10375;49.136;10.366;2022-12-07T01:15:58;16.30;;;12.07;;
20431;SDS011;10375;49.136;10.366;2022-12-07T01:18:27;15.40;;;11.57;;
20431;SDS011;10375;49.136;10.366;2022-12-07T01:20:59;14.70;;;11.73;;
20431;SDS011;10375;49.136;10.366;2022-12-07T01:23:28;15.10;;;11.40;;
20431;SDS011;10375;49.136;10.366;2022-12-07T01:25:56;18.60;;;12.73;;
20431;SDS011;10375;49.136;10.366;2022-12-07T01:28:24;15.03;;;11.50;;
20431;SDS011;10375;49.136;10.366;2022-12-07T01:30:59;18.03;;;12.30;;
20431;SDS011;10375;49.136;10.366;2022-12-07T01:33:35;16.47;;;11.87;;
20431;SDS011;10375;49.136;10.366;2022-12-07T01:36:04;17.10;;;13.37;;
20431;SDS011;10375;49.136;10.366;2022-12-07T01:38:39;17.23;;;12.10;;
20431;SDS011;10375;49.136;10.366;2022-12-07T01:41:06;19.70;;;12.83;;
20431;SDS011;10375;49.136;10.366;2022-12-07T01:43:34;17.93;;;12.03;;
20431;SDS011;10375;49.136;10.366;2022-12-07T01:46:02;16.87;;;12.30;;
20431;SDS011;10375;49.136;10.366;2022-12-07T01:51:04;15.50;;;11.80;;
20431;SDS011;10375;49.136;10.366;2022-12-07T01:53:40;16.27;;;12.00;;
20431;SDS011;10375;49.136;10.366;2022-12-07T01:56:10;19.17;;;13.20;;
20431;SDS011;10375;49.136;10.366;2022-12-07T01:58:42;20.47;;;12.57;;
20431;SDS011;10375;49.136;10.366;2022-12-07T02:01:10;16.27;;;12.20;;
20431;SDS011;10375;49.136;10.366;2022-12-07T02:03:39;18.63;;;12.83;;
20431;SDS011;10375;49.136;10.366;2022-12-07T02:06:08;16.97;;;12.33;;
20431;SDS011;10375;49.136;10.366;2022-12-07T02:08:38;18.80;;;13.17;;
20431;SDS011;10375;49.136;10.366;2022-12-07T02:11:06;20.77;;;12.77;;
20431;SDS011;10375;49.136;10.366;2022-12-07T02:13:35;22.60;;;12.57;;
20431;SDS011;10375;49.136;10.366;2022-12-07T02:27:46;18.73;;;12.30;;
20431;SDS011;10375;49.136;10.366;2022-12-07T02:30:20;20.17;;;12.90;;
20431;SDS011;10375;49.136;10.366;2022-12-07T02:33:03;17.23;;;12.70;;
20431;SDS011;10375;49.136;10.366;2022-12-07T02:35:46;19.57;;;12.73;;
20431;SDS011;10375;49.136;10.366;2022-12-07T02:38:54;18.30;;;13.13;;
20431;SDS011;10375;49.136;10.366;2022-12-07T02:41:43;20.07;;;12.57;;
20431;SDS011;10375;49.136;10.366;2022-12-07T02:44:18;19.07;;;13.40;;
20431;SDS011;10375;49.136;10.366;2022-12-07T02:46:52;18.50;;;12.47;;
20431;SDS011;10375;49.136;10.366;2022-12-07T02:49:23;18.90;;;12.50;;
20431;SDS011;10375;49.136;10.366;2022-12-07T02:51:52;18.63;;;13.10;;
20431;SDS011;10375;49.136;10.366;2022-12-07T02:54:20;19.77;;;13.77;;
20431;SDS011;10375;49.136;10.366;2022-12-07T03:02:15;19.90;;;13.97;;
20431;SDS011;10375;49.136;10.366;2022-12-07T03:07:46;18.97;;;13.50;;
20431;SDS011;10375;49.136;10.366;2022-12-07T03:12:57;22.10;;;14.83;;
20431;SDS011;10375;49.136;10.366;2022-12-07T03:15:57;20.20;;;13.57;;
20431;SDS011;10375;49.136;10.366;2022-12-07T03:21:53;23.77;;;14.93;;
20431;SDS011;10375;49.136;10.366;2022-12-07T03:24:36;21.50;;;15.07;;
20431;SDS011;10375;49.136;10.366;2022-12-07T03:27:09;23.70;;;15.40;;
20431;SDS011;10375;49.136;10.366;2022-12-07T03:29:41;20.43;;;13.83;;
20431;SDS011;10375;49.136;10.366;2022-12-07T03:32:35;24.07;;;14.50;;
20431;SDS011;10375;49.136;10.366;2022-12-07T03:35:09;24.20;;;15.57;;
20431;SDS011;10375;49.136;10.366;2022-12-07T03:40:43;22.07;;;14.60;;
20431;SDS011;10375;49.136;10.366;2022-12-07T03:43:18;21.30;;;15.40;;
20431;SDS011;10375;49.136;10.366;2022-12-07T03:46:42;22.60;;;14.67;;
20431;SDS011;10375;49.136;10.366;2022-12-07T03:48:57;22.87;;;14.07;;
20431;SDS011;10375;49.136;10.366;2022-12-07T03:55:43;25.30;;;14.80;;
20431;SDS011;10375;49.136;10.366;2022-12-07T03:58:21;24.47;;;15.13;;
20431;SDS011;10375;49.136;10.366;2022-12-07T04:00:52;21.10;;;15.30;;
20431;SDS011;10375;49.136;10.366;2022-12-07T04:03:29;28.60;;;15.53;;
20431;SDS011;10375;49.136;10.366;2022-12-07T04:05:58;26.30;;;15.93;;
20431;SDS011;10375;49.136;10.366;2022-12-07T04:08:32;23.40;;;14.57;;
20431;SDS011;10375;49.136;10.366;2022-12-07T04:11:00;21.63;;;15.23;;
20431;SDS011;10375;49.136;10.366;2022-12-07T04:13:38;22.63;;;15.00;;
20431;SDS011;10375;49.136;10.366;2022-12-07T04:16:32;24.43;;;15.93;;
20431;SDS011;10375;49.136;10.366;2022-12-07T04:19:09;22.43;;;15.43;;
20431;SDS011;10375;49.136;10.366;2022-12-07T04:21:52;21.90;;;14.33;;
20431;SDS011;10375;49.136;10.366;2022-12-07T04:24:20;27.97;;;15.23;;
20431;SDS011;10375;49.136;10.366;2022-12-07T04:26:52;21.83;;;14.83;;
20431;SDS011;10375;49.136;10.366;2022-12-07T04:29:20;24.80;;;16.57;;
20431;SDS011;10375;49.136;10.366;2022-12-07T04:31:58;26.30;;;15.17;;
20431;SDS011;10375;49.136;10.366;2022-12-07T04:34:26;22.03;;;14.77;;
20431;SDS011;10375;49.136;10.366;2022-12-07T04:36:54;22.77;;;14.93;;
20431;SDS011;10375;49.136;10.366;2022-12-07T04:39:32;26.77;;;15.23;;
20431;SDS011;10375;49.136;10.366;2022-12-07T04:42:03;27.53;;;15.43;;
20431;SDS011;10375;49.136;10.366;2022-12-07T04:44:32;26.63;;;16.13;;
20431;SDS011;10375;49.136;10.366;2022-12-07T04:46:59;22.97;;;14.43;;
20431;SDS011;10375;49.136;10.366;2022-12-07T04:49:28;25.87;;;16.83;;
20431;SDS011;10375;49.136;10.366;2022-12-07T04:51:56;26.57;;;15.77;;
20431;SDS011;10375;49.136;10.366;2022-12-07T04:54:26;27.83;;;13.97;;
20431;SDS011;10375;49.136;10.366;2022-12-07T04:56:55;21.90;;;15.03;;
20431;SDS011;10375;49.136;10.366;2022-12-07T04:59:29;22.30;;;14.80;;
20431;SDS011;10375;49.136;10.366;2022-12-07T05:01:57;23.27;;;14.73;;
20431;SDS011;10375;49.136;10.366;2022-12-07T05:04:30;22.07;;;15.03;;
20431;SDS011;10375;49.136;10.366;2022-12-07T05:07:00;22.50;;;14.37;;
20431;SDS011;10375;49.136;10.366;2022-12-07T05:09:34;22.13;;;14.53;;
20431;SDS011;10375;49.136;10.366;2022-12-07T05:12:09;25.63;;;16.43;;
20431;SDS011;10375;49.136;10.366;2022-12-07T05:14:51;24.00;;;15.90;;
20431;SDS011;10375;49.136;10.366;2022-12-07T05:17:19;27.40;;;15.80;;
20431;SDS011;10375;49.136;10.366;2022-12-07T05:19:49;37.10;;;16.50;;
20431;SDS011;10375;49.136;10.366;2022-12-07T05:22:16;25.37;;;14.93;;
20431;SDS011;10375;49.136;10.366;2022-12-07T05:24:45;24.03;;;15.47;;
20431;SDS011;10375;49.136;10.366;2022-12-07T05:27:14;23.30;;;15.63;;
20431;SDS011;10375;49.136;10.366;2022-12-07T05:30:25;22.30;;;15.23;;
20431;SDS011;10375;49.136;10.366;2022-12-07T05:34:02;27.93;;;15.30;;
20431;SDS011;10375;49.136;10.366;2022-12-07T05:37:36;28.63;;;15.83;;
20431;SDS011;10375;49.136;10.366;2022-12-07T05:41:24;27.90;;;15.97;;
20431;SDS011;10375;49.136;10.366;2022-12-07T05:44:27;27.70;;;16.27;;
20431;SDS011;10375;49.136;10.366;2022-12-07T05:46:55;25.47;;;16.73;;
20431;SDS011;10375;49.136;10.366;2022-12-07T05:49:29;26.23;;;15.33;;
20431;SDS011;10375;49.136;10.366;2022-12-07T05:51:59;23.07;;;15.57;;
20431;SDS011;10375;49.136;10.366;2022-12-07T05:54:32;31.87;;;16.43;;
20431;SDS011;10375;49.136;10.366;2022-12-07T05:57:01;24.57;;;15.30;;
20431;SDS011;10375;49.136;10.366;2022-12-07T05:59:29;25.20;;;15.27;;
20431;SDS011;10375;49.136;10.366;2022-12-07T06:01:58;31.80;;;17.93;;
20431;SDS011;10375;49.136;10.366;2022-12-07T06:04:31;28.53;;;16.90;;
20431;SDS011;10375;49.136;10.366;2022-12-07T06:07:04;22.90;;;14.90;;
20431;SDS011;10375;49.136;10.366;2022-12-07T06:09:32;23.37;;;15.87;;
20431;SDS011;10375;49.136;10.366;2022-12-07T06:12:03;29.03;;;16.53;;
20431;SDS011;10375;49.136;10.366;2022-12-07T06:14:54;25.83;;;15.60;;
20431;SDS011;10375;49.136;10.366;2022-12-07T06:17:22;25.77;;;15.27;;
20431;SDS011;10375;49.136;10.366;2022-12-07T06:19:50;29.27;;;15.77;;
20431;SDS011;10375;49.136;10.366;2022-12-07T06:22:18;26.60;;;15.63;;
20431;SDS011;10375;49.136;10.366;2022-12-07T06:25:23;24.83;;;16.10;;
20431;SDS011;10375;49.136;10.366;2022-12-07T06:27:52;28.57;;;16.70;;
20431;SDS011;10375;49.136;10.366;2022-12-07T06:30:26;25.33;;;16.20;;
20431;SDS011;10375;49.136;10.366;2022-12-07T06:33:06;26.30;;;16.03;;
20431;SDS011;10375;49.136;10.366;2022-12-07T06:35:37;52.60;;;18.40;;
20431;SDS011;10375;49.136;10.366;2022-12-07T06:38:05;28.23;;;16.43;;
20431;SDS011;10375;49.136;10.366;2022-12-07T06:40:36;48.03;;;19.60;;
20431;SDS011;10375;49.136;10.366;2022-12-07T07:02:03;31.87;;;16.13;;
20431;SDS011;10375;49.136;10.366;2022-12-07T07:04:34;28.90;;;16.00;;
20431;SDS011;10375;49.136;10.366;2022-12-07T07:07:16;30.30;;;15.10;;
20431;SDS011;10375;49.136;10.366;2022-12-07T07:10:20;26.77;;;15.53;;
20431;SDS011;10375;49.136;10.366;2022-12-07T07:13:26;21.90;;;14.13;;
20431;SDS011;10375;49.136;10.366;2022-12-07T07:15:59;33.03;;;15.90;;
20431;SDS011;10375;49.136;10.366;2022-12-07T07:18:27;24.47;;;15.40;;
20431;SDS011;10375;49.136;10.366;2022-12-07T07:20:55;27.20;;;16.40;;
20431;SDS011;10375;49.136;10.366;2022-12-07T07:23:25;28.43;;;14.97;;
20431;SDS011;10375;49.136;10.366;2022-12-07T07:25:57;24.60;;;15.27;;
20431;SDS011;10375;49.136;10.366;2022-12-07T07:28:27;26.80;;;16.03;;
20431;SDS011;10375;49.136;10.366;2022-12-07T07:31:00;23.63;;;14.77;;
20431;SDS011;10375;49.136;10.366;2022-12-07T07:33:39;23.30;;;14.93;;
20431;SDS011;10375;49.136;10.366;2022-12-07T07:36:08;27.13;;;14.90;;
20431;SDS011;10375;49.136;10.366;2022-12-07T07:39:00;25.40;;;14.73;;
20431;SDS011;10375;49.136;10.366;2022-12-07T07:41:54;43.17;;;16.83;;
20431;SDS011;10375;49.136;10.366;2022-12-07T07:44:21;24.47;;;15.77;;
20431;SDS011;10375;49.136;10.366;2022-12-07T07:46:48;25.17;;;15.53;;
20431;SDS011;10375;49.136;10.366;2022-12-07T07:49:15;25.00;;;15.03;;
20431;SDS011;10375;49.136;10.366;2022-12-07T07:51:42;23.43;;;14.33;;
20431;SDS011;10375;49.136;10.366;2022-12-07T07:56:47;24.87;;;14.83;;
20431;SDS011;10375;49.136;10.366;2022-12-07T07:59:15;22.80;;;14.37;;
20431;SDS011;10375;49.136;10.366;2022-12-07T08:01:43;30.47;;;15.83;;
20431;SDS011;10375;49.136;10.366;2022-12-07T08:04:10;25.07;;;14.70;;
20431;SDS011;10375;49.136;10.366;2022-12-07T08:06:37;21.80;;;14.00;;
20431;SDS011;10375;49.136;10.366;2022-12-07T08:09:04;22.10;;;15.33;;
20431;SDS011;10375;49.136;10.366;2022-12-07T08:14:08;21.43;;;14.30;;
20431;SDS011;10375;49.136;10.366;2022-12-07T08:16:37;30.60;;;13.50;;
20431;SDS011;10375;49.136;10.366;2022-12-07T08:19:06;25.57;;;14.63;;
20431;SDS011;10375;49.136;10.366;2022-12-07T08:21:35;27.57;;;14.83;;
20431;SDS011;10375;49.136;10.366;2022-12-07T08:24:06;21.20;;;13.73;;
20431;SDS011;10375;49.136;10.366;2022-12-07T08:26:33;20.40;;;13.40;;
20431;SDS011;10375;49.136;10.366;2022-12-07T08:29:01;21.63;;;13.40;;
20431;SDS011;10375;49.136;10.366;2022-12-07T08:31:29;21.83;;;14.37;;
20431;SDS011;10375;49.136;10.366;2022-12-07T08:33:57;19.10;;;12.63;;
20431;SDS011;10375;49.136;10.366;2022-12-07T08:36:25;18.40;;;12.40;;
20431;SDS011;10375;49.136;10.366;2022-12-07T08:38:53;19.67;;;13.07;;
20431;SDS011;10375;49.136;10.366;2022-12-07T08:41:42;24.97;;;12.57;;
20431;SDS011;10375;49.136;10.366;2022-12-07T08:44:15;23.67;;;13.70;;
20431;SDS011;10375;49.136;10.366;2022-12-07T08:46:56;18.30;;;12.60;;
20431;SDS011;10375;49.136;10.366;2022-12-07T08:49:31;19.97;;;12.83;;
20431;SDS011;10375;49.136;10.366;2022-12-07T08:52:20;20.07;;;12.47;;
20431;SDS011;10375;49.136;10.366;2022-12-07T08:54:50;22.63;;;12.40;;
20431;SDS011;10375;49.136;10.366;2022-12-07T08:57:19;21.33;;;12.80;;
20431;SDS011;10375;49.136;10.366;2022-12-07T09:00:03;23.63;;;12.37;;
20431;SDS011;10375;49.136;10.366;2022-12-07T09:02:41;19.97;;;12.33;;
20431;SDS011;10375;49.136;10.366;2022-12-07T09:05:12;18.03;;;12.57;;
20431;SDS011;10375;49.136;10.366;2022-12-07T09:07:45;24.83;;;13.23;;
20431;SDS011;10375;49.136;10.366;2022-12-07T09:10:15;18.30;;;12.30;;
20431;SDS011;10375;49.136;10.366;2022-12-07T09:12:42;20.40;;;12.87;;
20431;SDS011;10375;49.136;10.366;2022-12-07T09:15:09;19.50;;;12.47;;
20431;SDS011;10375;49.136;10.366;2022-12-07T09:17:36;14.47;;;10.80;;
20431;SDS011;10375;49.136;10.366;2022-12-07T09:20:14;23.27;;;14.37;;
20431;SDS011;10375;49.136;10.366;2022-12-07T09:22:41;19.03;;;11.97;;
20431;SDS011;10375;49.136;10.366;2022-12-07T09:28:09;18.30;;;11.70;;
20431;SDS011;10375;49.136;10.366;2022-12-07T09:30:37;21.03;;;11.23;;
20431;SDS011;10375;49.136;10.366;2022-12-07T09:33:26;16.07;;;11.13;;
20431;SDS011;10375;49.136;10.366;2022-12-07T09:35:58;15.53;;;10.17;;
20431;SDS011;10375;49.136;10.366;2022-12-07T09:38:26;13.97;;;9.27;;
20431;SDS011;10375;49.136;10.366;2022-12-07T09:40:54;17.50;;;11.60;;
20431;SDS011;10375;49.136;10.366;2022-12-07T09:43:22;16.97;;;10.00;;
20431;SDS011;10375;49.136;10.366;2022-12-07T09:45:58;14.27;;;9.80;;
20431;SDS011;10375;49.136;10.366;2022-12-07T09:48:32;14.87;;;9.97;;
20431;SDS011;10375;49.136;10.366;2022-12-07T09:51:23;12.60;;;9.47;;
20431;SDS011;10375;49.136;10.366;2022-12-07T09:53:52;15.43;;;9.73;;
20431;SDS011;10375;49.136;10.366;2022-12-07T09:56:21;13.23;;;8.73;;
20431;SDS011;10375;49.136;10.366;2022-12-07T09:58:58;12.03;;;8.40;;
20431;SDS011;10375;49.136;10.366;2022-12-07T10:01:33;12.23;;;8.37;;
20431;SDS011;10375;49.136;10.366;2022-12-07T10:04:22;13.00;;;8.10;;
20431;SDS011;10375;49.136;10.366;2022-12-07T10:06:52;11.47;;;8.20;;
20431;SDS011;10375;49.136;10.366;2022-12-07T10:09:20;12.47;;;8.70;;
20431;SDS011;10375;49.136;10.366;2022-12-07T10:12:02;11.07;;;8.03;;
20431;SDS011;10375;49.136;10.366;2022-12-07T10:14:33;11.93;;;8.27;;
20431;SDS011;10375;49.136;10.366;2022-12-07T10:17:29;10.40;;;7.73;;
20431;SDS011;10375;49.136;10.366;2022-12-07T10:22:38;13.07;;;8.27;;
20431;SDS011;10375;49.136;10.366;2022-12-07T10:25:20;11.03;;;7.53;;
20431;SDS011;10375;49.136;10.366;2022-12-07T10:36:16;11.67;;;8.40;;
20431;SDS011;10375;49.136;10.366;2022-12-07T10:39:00;11.40;;;7.90;;
20431;SDS011;10375;49.136;10.366;2022-12-07T10:41:57;10.93;;;7.50;;
20431;SDS011;10375;49.136;10.366;2022-12-07T10:44:28;10.13;;;7.60;;
20431;SDS011;10375;49.136;10.366;2022-12-07T10:57:07;11.70;;;8.67;;
20431;SDS011;10375;49.136;10.366;2022-12-07T11:10:35;12.63;;;8.50;;
20431;SDS011;10375;49.136;10.366;2022-12-07T11:16:16;13.43;;;8.43;;
20431;SDS011;10375;49.136;10.366;2022-12-07T11:24:18;13.07;;;8.30;;
20431;SDS011;10375;49.136;10.366;2022-12-07T11:36:02;11.20;;;8.10;;
20431;SDS011;10375;49.136;10.366;2022-12-07T11:38:26;11.53;;;7.97;;
20431;SDS011;10375;49.136;10.366;2022-12-07T11:41:12;12.87;;;8.17;;
20431;SDS011;10375;49.136;10.366;2022-12-07T11:43:50;12.07;;;8.90;;
20431;SDS011;10375;49.136;10.366;2022-12-07T11:46:25;13.40;;;8.80;;
20431;SDS011;10375;49.136;10.366;2022-12-07T11:49:03;17.80;;;9.20;;
20431;SDS011;10375;49.136;10.366;2022-12-07T11:51:41;13.47;;;8.77;;
20431;SDS011;10375;49.136;10.366;2022-12-07T11:54:14;15.10;;;9.40;;
20431;SDS011;10375;49.136;10.366;2022-12-07T11:56:45;12.17;;;8.63;;
20431;SDS011;10375;49.136;10.366;2022-12-07T11:59:17;13.73;;;8.83;;
20431;SDS011;10375;49.136;10.366;2022-12-07T12:01:56;11.90;;;8.23;;
20431;SDS011;10375;49.136;10.366;2022-12-07T12:07:27;10.77;;;8.13;;
20431;SDS011;10375;49.136;10.366;2022-12-07T12:10:19;12.70;;;9.33;;
20431;SDS011;10375;49.136;10.366;2022-12-07T12:22:37;14.27;;;9.40;;
20431;SDS011;10375;49.136;10.366;2022-12-07T12:25:15;13.87;;;8.90;;
20431;SDS011;10375;49.136;10.366;2022-12-07T12:27:51;12.77;;;8.83;;
20431;SDS011;10375;49.136;10.366;2022-12-07T12:30:26;11.67;;;8.23;;
20431;SDS011;10375;49.136;10.366;2022-12-07T12:33:02;13.80;;;8.87;;
20431;SDS011;10375;49.136;10.366;2022-12-07T12:35:41;11.37;;;8.50;;
20431;SDS011;10375;49.136;10.366;2022-12-07T12:51:52;17.00;;;10.07;;
20431;SDS011;10375;49.136;10.366;2022-12-07T12:54:26;16.03;;;11.17;;
20431;SDS011;10375;49.136;10.366;2022-12-07T12:59:32;16.07;;;10.80;;
20431;SDS011;10375;49.136;10.366;2022-12-07T13:05:01;16.27;;;10.37;;
20431;SDS011;10375;49.136;10.366;2022-12-07T13:15:37;16.10;;;11.03;;
20431;SDS011;10375;49.136;10.366;2022-12-07T13:24:08;14.33;;;10.63;;
20431;SDS011;10375;49.136;10.366;2022-12-07T13:31:50;16.53;;;11.67;;
20431;SDS011;10375;49.136;10.366;2022-12-07T13:37:08;17.27;;;11.00;;
20431;SDS011;10375;49.136;10.366;2022-12-07T13:39:46;19.83;;;11.57;;
20431;SDS011;10375;49.136;10.366;2022-12-07T13:42:27;16.00;;;11.00;;
20431;SDS011;10375;49.136;10.366;2022-12-07T13:44:57;18.73;;;11.57;;
20431;SDS011;10375;49.136;10.366;2022-12-07T13:47:34;18.13;;;10.87;;
20431;SDS011;10375;49.136;10.366;2022-12-07T13:50:43;17.53;;;10.47;;
20431;SDS011;10375;49.136;10.366;2022-12-07T13:53:07;15.53;;;10.73;;
20431;SDS011;10375;49.136;10.366;2022-12-07T13:55:44;94.87;;;14.30;;
20431;SDS011;10375;49.136;10.366;2022-12-07T13:58:19;20.53;;;11.70;;
20431;SDS011;10375;49.136;10.366;2022-12-07T14:00:48;21.13;;;10.50;;
20431;SDS011;10375;49.136;10.366;2022-12-07T14:05:44;15.07;;;10.07;;
20431;SDS011;10375;49.136;10.366;2022-12-07T14:13:32;19.30;;;10.90;;
20431;SDS011;10375;49.136;10.366;2022-12-07T14:19:04;37.07;;;12.50;;
20431;SDS011;10375;49.136;10.366;2022-12-07T14:22:05;20.83;;;11.13;;
20431;SDS011;10375;49.136;10.366;2022-12-07T14:24:58;15.37;;;10.60;;
20431;SDS011;10375;49.136;10.366;2022-12-07T14:27:49;46.27;;;13.80;;
20431;SDS011;10375;49.136;10.366;2022-12-07T14:30:23;101.73;;;15.90;;
20431;SDS011;10375;49.136;10.366;2022-12-07T14:32:57;88.07;;;14.10;;
20431;SDS011;10375;49.136;10.366;2022-12-07T14:35:27;24.97;;;16.23;;
20431;SDS011;10375;49.136;10.366;2022-12-07T14:37:54;48.90;;;13.67;;
20431;SDS011;10375;49.136;10.366;2022-12-07T14:40:26;23.30;;;11.33;;
20431;SDS011;10375;49.136;10.366;2022-12-07T14:42:57;24.47;;;13.97;;
20431;SDS011;10375;49.136;10.366;2022-12-07T14:45:28;38.67;;;14.00;;
20431;SDS011;10375;49.136;10.366;2022-12-07T14:47:56;22.50;;;10.83;;
20431;SDS011;10375;49.136;10.366;2022-12-07T14:50:49;36.67;;;14.77;;
20431;SDS011;10375;49.136;10.366;2022-12-07T14:53:39;17.97;;;13.07;;
20431;SDS011;10375;49.136;10.366;2022-12-07T14:56:15;23.57;;;11.73;;
20431;SDS011;10375;49.136;10.366;2022-12-07T14:58:42;24.40;;;14.47;;
20431;SDS011;10375;49.136;10.366;2022-12-07T15:01:09;15.00;;;9.80;;
20431;SDS011;10375;49.136;10.366;2022-12-07T15:03:36;40.13;;;12.50;;
20431;SDS011;10375;49.136;10.366;2022-12-07T15:06:05;17.27;;;10.77;;
20431;SDS011;10375;49.136;10.366;2022-12-07T15:08:33;25.57;;;11.33;;
20431;SDS011;10375;49.136;10.366;2022-12-07T15:11:00;19.50;;;12.37;;
20431;SDS011;10375;49.136;10.366;2022-12-07T15:13:27;26.97;;;11.23;;
20431;SDS011;10375;49.136;10.366;2022-12-07T15:16:13;23.20;;;11.53;;
20431;SDS011;10375;49.136;10.366;2022-12-07T15:18:45;43.43;;;13.20;;
20431;SDS011;10375;49.136;10.366;2022-12-07T15:21:32;18.63;;;11.67;;
20431;SDS011;10375;49.136;10.366;2022-12-07T15:23:59;18.20;;;11.43;;
20431;SDS011;10375;49.136;10.366;2022-12-07T15:26:26;19.60;;;10.90;;
20431;SDS011;10375;49.136;10.366;2022-12-07T15:28:53;22.07;;;11.30;;
20431;SDS011;10375;49.136;10.366;2022-12-07T15:31:20;22.10;;;12.00;;
20431;SDS011;10375;49.136;10.366;2022-12-07T15:34:08;20.03;;;11.47;;
20431;SDS011;10375;49.136;10.366;2022-12-07T15:36:35;19.57;;;11.20;;
20431;SDS011;10375;49.136;10.366;2022-12-07T15:39:02;16.33;;;13.03;;
20431;SDS011;10375;49.136;10.366;2022-12-07T15:41:45;15.33;;;10.53;;
20431;SDS011;10375;49.136;10.366;2022-12-07T15:44:12;22.67;;;11.13;;
20431;SDS011;10375;49.136;10.366;2022-12-07T15:46:58;18.40;;;10.47;;
20431;SDS011;10375;49.136;10.366;2022-12-07T15:49:26;18.07;;;10.60;;
20431;SDS011;10375;49.136;10.366;2022-12-07T15:51:53;15.97;;;10.37;;
20431;SDS011;10375;49.136;10.366;2022-12-07T15:54:22;27.63;;;17.33;;
20431;SDS011;10375;49.136;10.366;2022-12-07T15:56:53;16.30;;;11.37;;
20431;SDS011;10375;49.136;10.366;2022-12-07T15:59:21;20.57;;;12.90;;
20431;SDS011;10375;49.136;10.366;2022-12-07T16:01:48;18.37;;;12.53;;
20431;SDS011;10375;49.136;10.366;2022-12-07T16:04:15;21.43;;;13.07;;
20431;SDS011;10375;49.136;10.366;2022-12-07T16:06:42;19.50;;;13.13;;
20431;SDS011;10375;49.136;10.366;2022-12-07T16:09:09;18.33;;;13.37;;
20431;SDS011;10375;49.136;10.366;2022-12-07T16:11:36;23.55;;;14.98;;
20431;SDS011;10375;49.136;10.366;2022-12-07T16:14:03;27.97;;;12.20;;
20431;SDS011;10375;49.136;10.366;2022-12-07T16:16:30;18.60;;;12.57;;
20431;SDS011;10375;49.136;10.366;2022-12-07T16:18:58;16.17;;;10.47;;
20431;SDS011;10375;49.136;10.366;2022-12-07T16:21:25;18.03;;;11.33;;
20431;SDS011;10375;49.136;10.366;2022-12-07T16:23:52;16.53;;;11.33;;
20431;SDS011;10375;49.136;10.366;2022-12-07T16:26:20;18.33;;;11.60;;
20431;SDS011;10375;49.136;10.366;2022-12-07T16:28:49;18.00;;;11.77;;
20431;SDS011;10375;49.136;10.366;2022-12-07T16:31:18;18.97;;;11.10;;
20431;SDS011;10375;49.136;10.366;2022-12-07T16:33:46;17.73;;;11.50;;
20431;SDS011;10375;49.136;10.366;2022-12-07T16:36:15;22.13;;;13.53;;
20431;SDS011;10375;49.136;10.366;2022-12-07T16:39:03;27.57;;;16.80;;
20431;SDS011;10375;49.136;10.366;2022-12-07T16:41:31;22.40;;;12.73;;
20431;SDS011;10375;49.136;10.366;2022-12-07T16:44:05;18.27;;;12.97;;
20431;SDS011;10375;49.136;10.366;2022-12-07T16:46:35;26.40;;;13.30;;
20431;SDS011;10375;49.136;10.366;2022-12-07T16:49:03;23.20;;;14.63;;
20431;SDS011;10375;49.136;10.366;2022-12-07T16:51:31;24.80;;;17.00;;
20431;SDS011;10375;49.136;10.366;2022-12-07T16:54:00;26.83;;;13.43;;
20431;SDS011;10375;49.136;10.366;2022-12-07T16:56:28;21.47;;;12.27;;
20431;SDS011;10375;49.136;10.366;2022-12-07T16:58:57;25.53;;;11.93;;
20431;SDS011;10375;49.136;10.366;2022-12-07T17:01:25;20.00;;;11.90;;
20431;SDS011;10375;49.136;10.366;2022-12-07T17:03:55;19.70;;;11.77;;
20431;SDS011;10375;49.136;10.366;2022-12-07T17:06:24;20.73;;;12.30;;
20431;SDS011;10375;49.136;10.366;2022-12-07T17:08:54;23.87;;;14.93;;
20431;SDS011;10375;49.136;10.366;2022-12-07T17:11:27;26.20;;;14.50;;
20431;SDS011;10375;49.136;10.366;2022-12-07T17:13:57;45.13;;;28.90;;
20431;SDS011;10375;49.136;10.366;2022-12-07T17:16:42;25.03;;;17.23;;
20431;SDS011;10375;49.136;10.366;2022-12-07T17:19:11;36.47;;;21.20;;
20431;SDS011;10375;49.136;10.366;2022-12-07T17:21:39;28.20;;;17.37;;
20431;SDS011;10375;49.136;10.366;2022-12-07T17:24:08;20.03;;;12.73;;
20431;SDS011;10375;49.136;10.366;2022-12-07T17:26:37;20.70;;;13.30;;
20431;SDS011;10375;49.136;10.366;2022-12-07T17:29:05;20.40;;;13.57;;
20431;SDS011;10375;49.136;10.366;2022-12-07T17:31:34;16.60;;;12.10;;
20431;SDS011;10375;49.136;10.366;2022-12-07T17:34:02;16.27;;;12.17;;
20431;SDS011;10375;49.136;10.366;2022-12-07T17:36:30;21.73;;;13.40;;
20431;SDS011;10375;49.136;10.366;2022-12-07T17:38:58;18.87;;;11.53;;
20431;SDS011;10375;49.136;10.366;2022-12-07T17:41:26;18.03;;;11.90;;
20431;SDS011;10375;49.136;10.366;2022-12-07T17:44:16;18.37;;;12.23;;
20431;SDS011;10375;49.136;10.366;2022-12-07T17:46:45;23.00;;;13.10;;
20431;SDS011;10375;49.136;10.366;2022-12-07T17:49:13;23.43;;;12.70;;
20431;SDS011;10375;49.136;10.366;2022-12-07T17:51:40;19.63;;;12.97;;